Time;durP1;ratioP1;P1;durP2;ratioP2;P2;SDS_P1;SDS_P2;PMS_P1;PMS_P2;Temp;Humidity;BMP_temperature;BMP_pressure;BME280_temperature;BME280_humidity;BME280_pressure;Samples;Min_cycle;Max_cycle;Signal;HPM_P1;HPM_P2
2022/05/18 00:01:10;;;;;;;6.85;6.20;;;15.20;99.90;;;15.96;83.82;98410.94;5205862;28;20234;-60
2022/05/18 00:03:46;;;;;;;7.18;6.20;;;15.10;99.90;;;15.97;83.94;98417.88;5199587;28;20212;-52
2022/05/18 00:06:19;;;;;;;6.30;5.70;;;15.10;99.90;;;15.94;85.27;98410.00;5206112;28;20224;-56
2022/05/18 00:08:52;;;;;;;6.90;6.30;;;15.20;99.90;;;15.97;85.71;98410.13;5202283;28;20228;-53
2022/05/18 00:11:26;;;;;;;7.07;5.97;;;15.20;99.90;;;15.91;85.82;98402.09;5202786;28;20193;-51
2022/05/18 00:14:00;;;;;;;6.57;6.07;;;15.10;99.90;;;15.95;86.05;98402.31;5209822;28;20236;-52
2022/05/18 00:16:33;;;;;;;6.90;6.30;;;15.20;99.90;;;15.98;86.38;98409.31;5201224;28;20224;-51
2022/05/18 00:19:06;;;;;;;7.40;6.63;;;15.20;99.90;;;15.99;85.70;98406.81;5205326;28;20205;-62
2022/05/18 00:21:39;;;;;;;6.78;6.18;;;15.20;99.90;;;15.98;84.95;98406.72;5208032;28;20232;-52
2022/05/18 00:24:13;;;;;;;7.65;6.85;;;15.20;99.90;;;15.91;83.62;98410.75;5201851;28;20710;-56
2022/05/18 00:26:47;;;;;;;7.18;6.68;;;15.10;99.90;;;15.83;85.39;98408.63;5203895;28;20224;-54
2022/05/18 00:29:21;;;;;;;6.90;6.20;;;15.10;99.90;;;15.87;85.26;98415.69;5207179;28;20496;-53
2022/05/18 00:31:54;;;;;;;7.53;6.82;;;15.10;99.90;;;15.89;85.96;98416.63;5203492;28;20231;-55
2022/05/18 00:34:27;;;;;;;7.25;6.55;;;15.20;99.90;;;15.86;85.90;98414.81;5201838;28;20221;-53
2022/05/18 00:37:00;;;;;;;7.75;6.00;;;15.10;99.90;;;15.89;85.49;98414.06;5206299;28;20631;-55
2022/05/18 00:39:33;;;;;;;7.30;6.60;;;15.10;99.90;;;15.86;85.42;98404.47;5202296;28;20229;-52
2022/05/18 00:42:18;;;;;;;8.38;6.57;;;15.10;99.90;;;15.77;84.31;98404.97;5203651;28;20224;-54
2022/05/18 00:44:52;;;;;;;6.80;6.20;;;14.90;99.90;;;15.79;85.83;98411.88;5203993;28;20289;-60
2022/05/18 00:47:25;;;;;;;6.15;5.65;;;15.00;99.90;;;15.82;84.80;98409.41;5202034;28;20893;-52
2022/05/18 00:50:06;;;;;;;6.63;6.22;;;15.00;99.90;;;15.75;84.48;98411.72;5201389;28;20198;-54
2022/05/18 00:52:47;;;;;;;6.18;5.60;;;14.90;99.90;;;15.72;85.42;98415.88;5200819;28;20194;-55
2022/05/18 00:55:23;;;;;;;6.60;6.05;;;14.90;99.90;;;15.69;85.80;98411.44;5202507;28;20799;-54
2022/05/18 00:58:08;;;;;;;6.47;5.93;;;15.00;99.90;;;15.66;85.96;98411.28;5199804;28;20252;-50
2022/05/18 01:00:43;;;;;;;6.25;5.72;;;14.90;99.90;;;15.64;84.93;98410.31;5202529;28;20305;-53
2022/05/18 01:03:23;;;;;;;6.20;5.63;;;14.80;99.90;;;15.63;85.00;98405.09;5204386;28;20196;-53
2022/05/18 01:06:03;;;;;;;7.70;5.90;;;14.80;99.90;;;15.62;85.05;98408.47;5206130;28;20217;-51
2022/05/18 01:08:43;;;;;;;6.50;5.57;;;14.80;99.90;;;15.49;85.33;98407.03;5206407;28;20276;-52
2022/05/18 01:11:16;;;;;;;6.50;5.90;;;14.70;99.90;;;15.45;85.52;98400.88;5202936;28;20577;-55
2022/05/18 01:13:50;;;;;;;6.65;6.05;;;14.60;99.90;;;15.45;86.27;98405.13;5201947;28;20198;-52
2022/05/18 01:16:25;;;;;;;7.30;6.28;;;14.60;99.90;;;15.41;85.86;98404.09;5214673;28;20315;-51
2022/05/18 01:18:59;;;;;;;6.88;6.22;;;14.60;99.90;;;15.35;86.72;98410.66;5207374;28;20688;-56
2022/05/18 01:21:42;;;;;;;6.55;5.97;;;14.60;99.90;;;15.39;86.59;98410.00;5206522;28;20715;-57
2022/05/18 01:24:23;;;;;;;7.43;6.82;;;14.60;99.90;;;15.32;87.58;98414.84;5210629;28;20198;-53
2022/05/18 01:27:00;;;;;;;7.10;6.50;;;14.60;99.90;;;15.29;86.89;98414.72;5211616;28;20583;-54
2022/05/18 01:29:35;;;;;;;6.70;6.10;;;14.60;99.90;;;15.28;86.60;98423.25;5215564;28;20679;-56
2022/05/18 01:32:15;;;;;;;6.88;6.28;;;14.50;99.90;;;15.18;86.18;98415.88;5209598;28;20197;-53
2022/05/18 01:34:49;;;;;;;6.53;6.03;;;14.40;99.90;;;15.15;86.33;98418.31;5200225;28;20206;-53
2022/05/18 01:37:22;;;;;;;6.82;5.97;;;14.40;99.90;;;15.17;86.50;98421.88;5207934;28;20197;-56
2022/05/18 01:39:59;;;;;;;6.50;6.00;;;14.30;99.90;;;15.16;86.13;98417.50;5207894;28;20194;-57
2022/05/18 01:42:40;;;;;;;6.50;5.90;;;14.30;99.90;;;15.15;86.12;98431.19;5207580;28;20209;-58
2022/05/18 01:45:13;;;;;;;6.75;6.03;;;14.30;99.90;;;15.11;86.38;98424.16;5207884;28;20604;-55
2022/05/18 01:47:48;;;;;;;6.65;6.05;;;14.30;99.90;;;15.07;85.74;98422.22;5209482;28;20568;-55
2022/05/18 01:50:28;;;;;;;6.90;6.30;;;14.20;99.90;;;15.02;87.30;98423.69;5209558;28;20211;-58
2022/05/18 01:53:01;;;;;;;7.25;6.55;;;14.20;99.90;;;14.99;88.08;98424.41;5206225;28;20202;-53
2022/05/18 01:55:35;;;;;;;7.15;6.57;;;14.20;99.90;;;15.00;88.16;98412.44;5206135;28;20762;-52
2022/05/18 01:58:11;;;;;;;7.22;6.63;;;14.30;99.90;;;15.00;88.38;98423.63;5212268;28;20201;-53
2022/05/18 02:00:46;;;;;;;6.90;6.20;;;14.20;99.90;;;14.95;88.00;98419.06;5203038;28;20569;-55
2022/05/18 02:03:21;;;;;;;6.72;6.13;;;14.20;99.90;;;14.92;87.94;98426.63;5206367;28;20294;-51
2022/05/18 02:05:54;;;;;;;6.90;6.30;;;14.10;99.90;;;15.02;86.11;98431.41;5207448;28;20584;-61
2022/05/18 02:08:28;;;;;;;8.10;6.85;;;14.20;99.90;;;14.92;87.28;98432.66;5213519;28;20296;-56
2022/05/18 02:11:01;;;;;;;6.80;6.20;;;14.10;99.90;;;14.83;87.72;98438.22;5207551;28;20729;-54
2022/05/18 02:13:35;;;;;;;7.10;6.32;;;14.00;99.90;;;14.75;88.01;98438.66;5207149;28;20275;-52
2022/05/18 02:16:09;;;;;;;6.95;6.35;;;14.00;99.90;;;14.70;88.04;98440.13;5210051;28;20719;-58
2022/05/18 02:18:42;;;;;;;7.13;5.93;;;14.00;99.90;;;14.68;87.88;98442.63;5206171;28;20578;-56
2022/05/18 02:21:15;;;;;;;6.68;6.03;;;14.00;99.90;;;14.68;87.34;98447.78;5207844;28;20294;-58
2022/05/18 02:23:48;;;;;;;7.30;6.60;;;13.80;99.90;;;14.69;87.34;98454.69;5209661;28;20541;-56
2022/05/18 02:26:22;;;;;;;6.32;5.82;;;13.80;99.90;;;14.67;87.88;98452.81;5206981;28;20222;-56
2022/05/18 02:28:56;;;;;;;6.80;6.03;;;13.90;99.90;;;14.64;87.03;98451.84;5210675;28;20241;-57
2022/05/18 02:31:30;;;;;;;6.88;6.20;;;13.80;99.90;;;14.56;87.11;98453.16;5209752;28;20196;-57
2022/05/18 02:34:04;;;;;;;7.10;6.43;;;13.80;99.90;;;14.51;87.36;98443.44;5208635;28;20567;-58
2022/05/18 02:36:37;;;;;;;6.72;6.10;;;13.70;99.90;;;14.32;87.12;98436.44;5206749;28;20222;-57
2022/05/18 02:39:10;;;;;;;6.80;6.20;;;13.60;99.90;;;14.32;88.49;98445.03;5204059;28;20615;-58
2022/05/18 02:41:44;;;;;;;7.20;6.60;;;13.50;99.90;;;14.29;88.26;98432.03;5205602;28;20253;-58
2022/05/18 02:44:20;;;;;;;7.13;6.53;;;13.50;99.90;;;14.20;87.07;98426.41;5203352;28;20301;-58
2022/05/18 02:46:57;;;;;;;7.10;6.50;;;13.40;99.90;;;14.19;88.41;98429.78;5204489;28;20213;-58
2022/05/18 02:49:31;;;;;;;7.07;6.55;;;13.40;99.90;;;14.13;88.26;98432.03;5206851;28;20708;-58
2022/05/18 02:52:05;;;;;;;7.68;6.97;;;13.30;99.90;;;14.12;88.71;98437.97;5212584;28;20202;-56
2022/05/18 02:57:29;;;;;;;8.43;7.72;;;13.40;99.90;;;14.18;90.09;98443.44;5206017;28;20212;-57
2022/05/18 03:00:05;;;;;;;7.63;6.90;;;13.40;99.90;;;14.14;90.39;98438.97;5204937;28;20301;-58
2022/05/18 03:02:38;;;;;;;6.68;6.13;;;13.40;99.90;;;14.16;89.82;98439.91;5206180;28;20226;-58
2022/05/18 03:05:11;;;;;;;6.63;6.03;;;13.40;99.90;;;14.16;89.43;98434.75;5205093;28;20689;-58
2022/05/18 03:07:44;;;;;;;6.60;6.00;;;13.40;99.90;;;14.17;89.39;98441.69;5213127;28;20202;-58
2022/05/18 03:10:18;;;;;;;7.10;6.47;;;13.40;99.90;;;14.14;89.55;98441.53;5208854;28;20238;-58
2022/05/18 03:12:51;;;;;;;6.50;5.90;;;13.40;99.90;;;14.14;87.85;98446.66;5202391;28;20201;-56
2022/05/18 03:15:25;;;;;;;6.75;6.25;;;13.40;99.90;;;14.12;88.75;98448.25;5206369;28;20226;-58
2022/05/18 03:17:58;;;;;;;7.18;6.68;;;13.40;99.90;;;14.12;88.07;98443.13;5205085;28;20197;-57
2022/05/18 03:23:34;;;;;;;7.22;6.63;;;13.30;99.90;;;14.06;88.80;98456.53;5204484;28;20684;-58
2022/05/18 03:26:11;;;;;;;7.03;6.43;;;13.30;99.90;;;13.98;87.42;98463.84;5213082;28;20214;-58
2022/05/18 03:28:47;;;;;;;7.30;6.47;;;13.20;99.90;;;13.94;88.13;98467.06;5205146;28;20205;-58
2022/05/18 03:31:23;;;;;;;7.07;6.47;;;13.20;99.90;;;13.95;88.29;98470.50;5198285;28;20292;-58
2022/05/18 03:33:58;;;;;;;7.25;6.65;;;13.20;99.90;;;13.94;88.33;98479.03;5209576;28;20189;-58
2022/05/18 03:36:31;;;;;;;6.95;6.45;;;13.20;99.90;;;13.91;88.90;98479.75;5206380;28;20282;-50
2022/05/18 03:39:06;;;;;;;8.27;6.88;;;13.10;99.90;;;13.93;88.70;98480.69;5215525;28;20667;-54
2022/05/18 03:41:40;;;;;;;7.90;6.88;;;13.20;99.90;;;13.87;87.74;98470.06;5199611;28;20202;-51
2022/05/18 03:44:13;;;;;;;6.88;6.30;;;13.10;99.90;;;13.86;88.37;98476.03;5210448;28;20213;-56
2022/05/18 03:46:48;;;;;;;7.07;6.47;;;13.10;99.90;;;13.85;88.53;98476.84;5209592;28;20226;-54
2022/05/18 03:49:21;;;;;;;7.30;6.63;;;13.10;99.90;;;13.78;89.58;98479.88;5205464;28;20202;-57
2022/05/18 03:51:54;;;;;;;7.32;6.72;;;13.10;99.90;;;13.75;88.32;98475.44;5213167;28;20204;-52
2022/05/18 03:54:27;;;;;;;7.03;6.43;;;13.00;99.90;;;13.82;88.17;98471.53;5205404;28;20229;-57
2022/05/18 03:57:00;;;;;;;7.55;6.82;;;13.00;99.90;;;13.84;89.60;98476.75;5219333;28;20763;-55
2022/05/18 03:59:33;;;;;;;7.15;6.47;;;13.10;99.90;;;13.86;90.57;98480.28;5203355;28;20264;-59
2022/05/18 04:02:08;;;;;;;8.30;7.50;;;13.10;99.90;;;13.76;87.70;98473.75;5195181;28;20217;-63
2022/05/18 04:04:42;;;;;;;7.63;7.00;;;13.00;99.90;;;13.78;89.72;98477.28;5202235;28;20554;-54
2022/05/18 04:07:15;;;;;;;7.07;6.47;;;13.00;99.90;;;13.80;88.90;98483.41;5206862;28;20331;-52
2022/05/18 04:09:48;;;;;;;7.05;6.35;;;13.00;99.90;;;13.79;89.59;98481.63;5204100;28;20194;-59
2022/05/18 04:12:21;;;;;;;6.72;6.07;;;13.00;99.90;;;13.77;89.81;98480.69;5201591;28;20282;-51
2022/05/18 04:14:54;;;;;;;7.47;6.78;;;13.00;99.90;;;13.74;89.23;98481.41;5205942;28;20222;-59
2022/05/18 04:17:29;;;;;;;7.57;6.88;;;12.90;99.90;;;13.73;88.87;98481.28;5205650;28;22193;-51
2022/05/18 04:20:04;;;;;;;7.00;6.38;;;12.90;99.90;;;13.79;88.51;98475.59;5199812;28;20202;-59
2022/05/18 04:22:37;;;;;;;6.85;6.25;;;13.00;99.90;;;13.74;88.32;98480.50;5202885;28;20275;-51
2022/05/18 04:25:12;;;;;;;6.55;6.05;;;13.00;99.90;;;13.75;88.86;98482.28;5213677;28;20226;-53
2022/05/18 04:27:47;;;;;;;6.90;6.20;;;13.00;99.90;;;13.81;89.73;98480.03;5199877;28;20239;-52
2022/05/18 04:30:24;;;;;;;6.38;5.88;;;13.20;99.90;;;13.89;88.87;98485.59;5201239;28;20304;-54
2022/05/18 04:32:59;;;;;;;7.38;6.88;;;13.20;99.90;;;13.89;89.38;98491.63;5205829;28;20242;-56
2022/05/18 04:35:32;;;;;;;7.05;6.35;;;13.20;99.90;;;13.97;88.82;98487.78;5212886;28;20227;-52
2022/05/18 04:38:05;;;;;;;7.65;6.90;;;13.30;99.90;;;14.04;87.94;98496.69;5208533;28;20620;-52
2022/05/18 04:40:38;;;;;;;7.28;6.57;;;13.30;99.90;;;14.08;88.51;98490.94;5204793;28;20300;-57
2022/05/18 04:43:11;;;;;;;8.25;7.55;;;13.30;99.90;;;14.18;89.66;98495.75;5209106;28;20229;-53
2022/05/18 04:45:45;;;;;;;7.80;7.15;;;13.40;99.90;;;14.25;88.51;98502.13;5206745;28;20233;-51
2022/05/18 04:48:22;;;;;;;7.72;7.03;;;13.50;99.90;;;14.31;88.76;98507.56;5210634;28;20348;-51
2022/05/18 04:50:55;;;;;;;7.93;6.93;;;13.60;99.90;;;14.45;88.53;98509.97;5211650;28;20197;-55
2022/05/18 04:53:28;;;;;;;7.43;6.72;;;13.70;99.90;;;14.57;88.56;98510.66;5209428;28;20271;-55
2022/05/18 04:56:01;;;;;;;7.82;6.68;;;13.80;99.90;;;14.69;87.77;98516.44;5209033;28;20221;-59
2022/05/18 04:58:35;;;;;;;6.80;6.30;;;13.90;99.90;;;14.89;87.01;98519.16;5203891;28;20198;-51
2022/05/18 05:01:10;;;;;;;7.97;7.13;;;14.10;99.90;;;15.00;86.64;98526.59;5210955;28;20263;-50
2022/05/18 05:03:44;;;;;;;7.65;6.93;;;14.10;99.90;;;15.14;84.95;98524.72;5213183;28;20675;-51
2022/05/18 05:06:17;;;;;;;7.60;7.00;;;14.20;99.90;;;15.28;84.63;98536.59;5212288;28;20228;-59
2022/05/18 05:08:50;;;;;;;7.38;6.70;;;14.40;99.90;;;15.22;85.28;98541.44;5223312;28;20202;-52
2022/05/18 05:11:23;;;;;;;7.47;6.80;;;14.50;99.90;;;15.43;83.39;98543.31;5212590;28;20662;-51
2022/05/18 05:13:56;;;;;;;7.32;6.72;;;14.50;99.90;;;15.64;82.75;98535.72;5210337;28;20293;-50
2022/05/18 05:16:29;;;;;;;7.50;6.72;;;14.60;99.90;;;15.99;81.09;98540.00;5218428;28;20221;-52
2022/05/18 05:19:05;;;;;;;7.90;7.28;;;15.00;99.90;;;16.69;79.41;98544.91;5208114;28;20204;-58
2022/05/18 05:21:41;;;;;;;7.55;6.85;;;15.80;99.90;;;17.40;76.85;98547.91;5203853;28;20201;-53
2022/05/18 05:24:17;;;;;;;6.97;6.40;;;16.50;99.90;;;17.98;74.32;98539.94;5207914;28;20231;-51
2022/05/18 05:26:50;;;;;;;8.40;6.43;;;17.10;99.90;;;18.72;71.79;98545.28;5214052;28;20214;-56
2022/05/18 05:29:23;;;;;;;7.30;6.25;;;17.70;99.90;;;19.28;69.36;98551.59;5211077;28;20252;-55
2022/05/18 05:31:56;;;;;;;6.40;5.85;;;18.20;99.90;;;19.75;66.61;98553.19;5205395;28;20205;-50
2022/05/18 05:34:31;;;;;;;7.78;6.63;;;18.40;99.90;;;19.91;64.76;98551.06;5214393;28;20332;-54
2022/05/18 05:37:05;;;;;;;7.00;6.40;;;18.50;99.90;;;20.27;63.33;98545.25;5211136;28;20212;-54
2022/05/18 05:39:38;;;;;;;6.43;5.88;;;18.70;99.90;;;20.68;63.09;98542.16;5209289;28;20719;-52
2022/05/18 05:42:11;;;;;;;6.75;5.88;;;19.00;99.90;;;20.79;62.00;98550.25;5213652;28;20285;-55
2022/05/18 05:44:44;;;;;;;5.72;5.32;;;19.20;99.90;;;20.87;60.52;98546.16;5210129;28;20246;-54
2022/05/18 05:47:18;;;;;;;5.97;5.47;;;19.10;99.90;;;21.27;60.44;98554.13;5220861;28;20646;-54
2022/05/18 05:49:53;;;;;;;6.60;6.03;;;19.30;99.90;;;21.35;59.73;98547.41;5213217;28;20208;-56
2022/05/18 05:52:26;;;;;;;6.60;6.00;;;19.50;99.90;;;21.52;59.33;98548.75;5216464;28;20219;-57
2022/05/18 05:54:59;;;;;;;8.85;7.93;;;19.70;99.90;;;21.83;58.59;98546.88;5215242;28;20212;-57
2022/05/18 05:57:32;;;;;;;7.35;6.68;;;19.80;99.90;;;22.11;57.85;98539.69;5210624;28;20205;-56
2022/05/18 06:00:07;;;;;;;5.47;4.97;;;19.90;99.90;;;22.30;57.13;98544.50;5212804;28;20632;-57
2022/05/18 06:02:41;;;;;;;6.00;5.38;;;20.10;99.90;;;22.72;55.87;98543.63;5214942;28;20238;-55
2022/05/18 06:05:15;;;;;;;5.15;4.75;;;20.40;99.90;;;23.02;54.86;98540.75;5216180;28;20407;-57
2022/05/18 06:07:48;;;;;;;5.82;5.30;;;20.70;99.90;;;23.22;54.22;98543.72;5203855;28;20289;-56
2022/05/18 06:10:22;;;;;;;5.88;5.45;;;20.90;99.90;;;23.49;53.37;98545.06;5212702;28;20232;-56
2022/05/18 06:12:55;;;;;;;6.10;5.60;;;21.00;99.90;;;23.63;53.26;98542.66;5215163;28;20201;-54
2022/05/18 06:15:28;;;;;;;5.60;5.10;;;21.10;99.90;;;23.86;52.82;98551.78;5218488;28;20209;-57
2022/05/18 06:18:01;;;;;;;5.53;5.03;;;21.20;99.90;;;24.30;51.55;98538.50;5216736;28;20198;-57
2022/05/18 06:20:36;;;;;;;5.88;4.80;;;21.60;99.90;;;24.53;50.54;98545.78;5214476;28;20209;-55
2022/05/18 06:23:11;;;;;;;5.20;4.75;;;21.90;99.90;;;24.71;50.50;98541.63;5215522;28;20203;-53
2022/05/18 06:25:44;;;;;;;4.93;4.47;;;22.10;99.90;;;24.82;50.79;98544.38;5213061;28;20307;-56
2022/05/18 06:28:17;;;;;;;5.60;5.20;;;22.20;99.90;;;25.24;49.81;98543.13;5214638;28;20248;-56
2022/05/18 06:30:50;;;;;;;6.03;5.32;;;22.40;99.90;;;25.38;49.05;98552.00;5209978;28;20193;-57
2022/05/18 06:33:24;;;;;;;5.30;4.90;;;22.60;99.70;;;25.66;49.15;98540.84;5216313;28;20204;-54
2022/05/18 06:35:58;;;;;;;6.00;5.10;;;23.00;99.50;;;25.91;48.55;98540.22;5210083;28;20251;-57
2022/05/18 06:38:31;;;;;;;5.10;4.70;;;23.30;98.60;;;26.40;46.91;98544.84;5208828;28;20661;-58
2022/05/18 06:41:22;;;;;;;5.10;4.70;;;23.70;98.10;;;26.55;46.46;98542.31;5206504;28;20240;-58
2022/05/18 06:44:00;;;;;;;5.32;4.82;;;23.80;97.50;;;26.85;45.63;98538.94;5205162;28;20241;-58
2022/05/18 06:46:36;;;;;;;6.13;5.03;;;24.20;96.70;;;27.31;44.81;98536.44;5217869;28;20291;-58
2022/05/18 06:49:12;;;;;;;4.80;4.40;;;24.50;96.30;;;27.78;43.66;98546.06;5219044;28;20197;-58
2022/05/18 06:51:47;;;;;;;5.20;4.80;;;24.90;95.70;;;27.89;42.80;98539.97;5215066;28;20220;-58
2022/05/18 06:54:20;;;;;;;4.88;4.43;;;25.30;95.00;;;28.04;43.03;98539.94;5216919;28;20529;-58
2022/05/18 06:57:14;;;;;;;5.15;4.65;;;25.40;94.70;;;28.35;43.01;98546.00;5214593;28;20229;-57
2022/05/18 06:59:47;;;;;;;4.50;4.10;;;25.60;94.70;;;28.49;43.29;98544.22;5217939;28;20285;-58
2022/05/18 07:02:20;;;;;;;5.35;4.85;;;26.00;94.60;;;28.80;41.91;98545.88;5216616;28;20289;-58
2022/05/18 07:04:54;;;;;;;5.13;4.57;;;26.00;93.80;;;29.10;40.54;98539.56;5214320;28;20318;-58
2022/05/18 07:07:28;;;;;;;4.57;4.18;;;26.20;93.40;;;28.97;41.33;98544.03;5215577;28;20280;-58
2022/05/18 07:10:01;;;;;;;4.38;4.03;;;26.20;93.60;;;29.15;41.75;98543.94;5214072;28;20667;-58
2022/05/18 07:12:37;;;;;;;3.60;3.30;;;26.50;93.30;;;29.36;39.30;98542.94;5220317;28;20201;-58
2022/05/18 07:15:11;;;;;;;4.18;3.75;;;26.80;91.00;;;29.46;38.45;98546.34;5218488;28;20216;-59
2022/05/18 07:17:44;;;;;;;4.25;3.50;;;27.10;90.40;;;29.63;37.90;98541.00;5214514;28;20740;-58
2022/05/18 07:20:34;;;;;;;4.72;3.63;;;27.30;89.10;;;29.03;38.18;98546.66;5211417;28;20201;-58
2022/05/18 07:23:09;;;;;;;5.30;3.90;;;26.90;88.80;;;29.36;37.21;98555.19;5218163;28;20646;-58
2022/05/18 07:25:42;;;;;;;4.03;3.50;;;27.20;87.30;;;29.78;37.32;98548.75;5210209;28;20299;-58
2022/05/18 07:28:15;;;;;;;3.25;2.95;;;27.60;87.90;;;29.94;36.76;98538.94;5214504;28;20296;-58
2022/05/18 07:30:55;;;;;;;3.60;3.30;;;27.80;87.20;;;30.40;36.27;98549.03;5214595;28;20201;-58
2022/05/18 07:33:28;;;;;;;4.75;3.50;;;28.00;86.40;;;30.50;36.54;98552.44;5214485;28;20543;-58
2022/05/18 07:36:02;;;;;;;3.33;3.05;;;28.20;87.30;;;30.77;33.84;98558.28;5214092;28;20301;-58
2022/05/18 07:38:39;;;;;;;3.83;3.13;;;28.10;82.60;;;30.75;34.60;98550.38;5217415;28;20197;-59
2022/05/18 07:41:15;;;;;;;3.88;3.58;;;28.20;84.00;;;30.92;33.55;98552.81;5216104;28;20661;-61
2022/05/18 07:43:48;;;;;;;4.85;3.10;;;28.20;82.40;;;30.98;33.53;98556.25;5216715;28;20209;-58
2022/05/18 07:46:21;;;;;;;6.40;3.55;;;28.10;82.30;;;31.10;33.44;98551.69;5217120;28;20316;-58
2022/05/18 07:48:54;;;;;;;3.42;3.13;;;28.20;81.90;;;31.52;32.83;98551.97;5213531;28;20623;-59
2022/05/18 07:51:27;;;;;;;4.75;3.60;;;28.50;82.50;;;30.88;32.66;98552.00;5215256;28;20201;-58
2022/05/18 07:54:01;;;;;;;3.13;2.75;;;28.20;80.00;;;31.02;32.86;98553.56;5213633;28;20193;-58
2022/05/18 07:56:34;;;;;;;3.72;3.40;;;28.20;80.10;;;31.12;32.37;98555.19;5214059;28;20269;-58
2022/05/18 07:59:09;;;;;;;4.28;2.88;;;28.40;79.10;;;31.24;32.07;98554.13;5212544;28;20193;-59
2022/05/18 08:01:42;;;;;;;3.13;2.92;;;28.60;78.40;;;31.32;31.47;98553.13;5214369;28;20303;-58
2022/05/18 08:04:15;;;;;;;3.85;2.80;;;29.10;76.70;;;31.11;32.65;98554.31;5214886;28;20193;-57
2022/05/18 08:06:49;;;;;;;4.70;3.03;;;29.00;77.50;;;30.64;32.91;98552.28;5211464;28;20221;-58
2022/05/18 08:09:28;;;;;;;2.85;2.65;;;29.00;76.30;;;30.61;32.94;98552.31;5216388;28;20283;-58
2022/05/18 08:15:06;;;;;;;4.45;3.25;;;29.00;76.20;;;30.61;34.06;98541.75;5207340;28;20244;-58
2022/05/18 08:17:44;;;;;;;2.90;2.55;;;29.00;78.40;;;30.71;32.94;98541.63;5206071;28;20733;-58
2022/05/18 08:20:21;;;;;;;3.20;2.90;;;28.90;76.60;;;30.81;34.12;98547.69;5215206;28;20672;-58
2022/05/18 08:22:55;;;;;;;3.15;2.90;;;29.10;78.30;;;30.84;33.63;98545.00;5216029;28;20193;-58
2022/05/18 08:25:29;;;;;;;3.13;2.67;;;29.30;76.60;;;30.73;32.44;98547.78;5218037;28;20225;-60
2022/05/18 08:28:08;;;;;;;3.10;2.90;;;29.60;73.70;;;30.39;33.26;98552.59;5215928;28;20204;-60
2022/05/18 08:30:42;;;;;;;3.20;2.90;;;29.30;75.30;;;30.14;33.85;98548.44;5203672;28;20224;-58
2022/05/18 08:33:15;;;;;;;3.75;3.08;;;29.00;75.90;;;30.37;34.16;98554.34;5215763;28;20250;-59
2022/05/18 08:35:49;;;;;;;4.00;3.25;;;29.30;76.50;;;30.57;33.44;98559.41;5211359;28;20438;-59
2022/05/18 08:38:22;;;;;;;3.65;2.92;;;29.50;75.00;;;30.47;35.16;98550.69;5213774;28;20197;-60
2022/05/18 08:41:02;;;;;;;3.22;2.78;;;29.50;77.60;;;30.62;32.97;98554.06;5213727;28;20260;-60
2022/05/18 08:43:38;;;;;;;3.28;3.08;;;29.80;73.30;;;30.37;33.16;98557.00;5214452;28;20231;-59
2022/05/18 08:46:18;;;;;;;5.05;3.42;;;29.40;73.70;;;30.23;33.58;98543.09;5213731;28;20251;-58
2022/05/18 08:49:00;;;;;;;3.47;3.17;;;29.20;74.10;;;30.20;33.72;98551.00;5217060;28;20185;-60
2022/05/18 08:51:51;;;;;;;3.42;3.13;;;29.10;74.20;;;29.93;33.81;98553.00;5205128;28;20208;-56
2022/05/18 08:54:44;;;;;;;3.70;2.90;;;29.10;73.60;;;29.59;33.99;98553.28;5215876;28;20244;-60
2022/05/18 08:57:23;;;;;;;3.28;2.97;;;28.70;74.10;;;29.47;34.29;98557.78;5211829;28;20218;-60
2022/05/18 09:00:00;;;;;;;3.53;3.20;;;28.70;73.70;;;29.58;33.35;98551.53;5209985;28;20255;-60
2022/05/18 09:02:36;;;;;;;3.40;3.10;;;28.70;72.90;;;29.35;33.24;98554.34;5216831;28;20555;-59
2022/05/18 09:05:14;;;;;;;3.17;2.97;;;28.40;72.90;;;28.61;34.18;98558.22;5215120;28;20221;-59
2022/05/18 09:08:06;;;;;;;3.65;3.15;;;27.70;73.80;;;28.37;34.78;98548.66;5214875;28;20198;-59
2022/05/18 09:10:45;;;;;;;4.00;3.40;;;27.40;74.70;;;28.33;35.87;98546.88;5205729;28;20730;-58
2022/05/18 09:13:20;;;;;;;3.75;3.42;;;27.50;75.80;;;28.52;34.63;98551.25;5206104;28;20200;-59
2022/05/18 09:16:03;;;;;;;3.78;3.47;;;27.70;74.50;;;28.93;35.58;98544.91;5213017;28;20584;-59
2022/05/18 09:18:43;;;;;;;3.60;3.28;;;28.20;76.00;;;29.23;33.17;98546.53;5206625;28;20200;-58
2022/05/18 09:21:42;;;;;;;3.72;3.17;;;28.50;73.00;;;29.38;33.59;98556.06;5221517;28;20687;-59
2022/05/18 09:24:30;;;;;;;3.50;3.20;;;28.70;73.20;;;29.34;34.56;98551.72;5219613;28;20295;-59
2022/05/18 09:27:20;;;;;;;3.13;2.85;;;28.80;74.20;;;29.27;33.41;98545.59;5217031;28;20248;-59
2022/05/18 09:30:06;;;;;;;3.10;2.90;;;28.50;72.20;;;29.21;33.18;98544.78;5207533;28;20225;-59
2022/05/18 09:33:02;;;;;;;3.58;3.10;;;28.40;72.20;;;29.37;33.17;98551.69;5210244;28;20569;-59
2022/05/18 09:35:56;;;;;;;3.13;2.85;;;28.70;72.50;;;29.45;32.83;98554.28;5221144;28;20209;-58
2022/05/18 09:38:39;;;;;;;4.45;2.80;;;28.70;70.80;;;29.21;33.24;98550.91;5219633;28;20220;-60
2022/05/18 09:41:16;;;;;;;3.13;2.92;;;28.60;71.40;;;28.96;33.05;98545.78;5216830;28;20232;-58
2022/05/18 09:44:00;;;;;;;3.38;3.08;;;28.30;71.30;;;28.89;34.02;98543.19;5216055;28;20198;-59
2022/05/18 09:46:35;;;;;;;3.47;3.15;;;28.20;72.60;;;28.94;33.66;98558.06;5222501;28;20320;-60
2022/05/18 09:49:20;;;;;;;4.85;3.35;;;28.30;70.70;;;28.92;33.85;98543.16;5221242;28;20196;-59
2022/05/18 09:51:57;;;;;;;3.20;2.92;;;28.20;72.20;;;28.67;33.70;98543.31;5217488;28;20227;-58
2022/05/18 09:54:31;;;;;;;3.72;3.08;;;27.90;71.10;;;28.85;34.29;98544.09;5212598;28;20242;-58
2022/05/18 09:57:12;;;;;;;3.38;3.08;;;28.00;73.40;;;28.43;34.07;98540.75;5220191;28;20212;-58
2022/05/18 09:59:50;;;;;;;3.55;3.00;;;27.90;71.90;;;28.63;33.43;98546.81;5205278;28;20231;-60
2022/05/18 10:08:34;;;;;;;4.10;3.10;;;27.70;70.70;;;28.13;34.80;98536.41;5129994;28;20195;-58
2022/05/18 10:11:13;;;;;;;3.33;3.00;;;27.40;72.60;;;28.40;35.44;98541.59;5127055;28;20298;-59
2022/05/18 10:14:00;;;;;;;6.43;5.88;;;27.70;73.20;;;28.47;33.37;98534.59;5185787;28;20287;-55
2022/05/18 10:16:40;;;;;;;5.97;5.57;;;28.00;70.50;;;28.54;34.58;98523.19;5212429;28;20303;-58
2022/05/18 10:19:21;;;;;;;3.53;3.17;;;27.90;72.20;;;28.18;34.24;98517.13;5196586;28;20292;-60
2022/05/18 10:21:56;;;;;;;7.28;6.60;;;27.50;72.10;;;28.37;35.55;98528.47;5206454;28;20672;-59
2022/05/18 10:24:38;;;;;;;145.75;136.02;;;27.70;73.40;;;28.41;33.98;98529.31;5204959;28;20589;-59
2022/05/18 10:27:18;;;;;;;51.28;46.55;;;27.80;71.40;;;28.46;34.46;98517.06;5205407;28;20620;-59
2022/05/18 10:30:08;;;;;;;6.85;5.35;;;27.90;71.00;;;28.39;33.11;98515.34;5212315;28;20204;-59
2022/05/18 10:32:55;;;;;;;3.38;3.10;;;27.80;70.80;;;28.55;32.98;98511.75;5203339;28;20229;-59
2022/05/18 10:35:38;;;;;;;3.13;2.85;;;27.80;70.20;;;28.70;32.85;98506.44;5213494;28;20213;-58
2022/05/18 10:38:22;;;;;;;5.07;2.70;;;28.00;69.80;;;28.74;32.50;98504.66;5204389;28;20288;-57
2022/05/18 10:41:08;;;;;;;4.32;3.28;;;28.10;69.40;;;28.57;33.67;98517.91;5205894;28;20229;-59
2022/05/18 10:43:45;;;;;;;3.65;2.92;;;27.90;70.50;;;28.40;33.23;98501.28;5204125;28;20248;-57
2022/05/18 10:46:28;;;;;;;2.90;2.70;;;27.60;70.90;;;28.39;33.30;98504.81;5217122;28;20256;-59
2022/05/18 10:49:04;;;;;;;3.42;3.13;;;27.70;70.40;;;28.54;34.75;98506.53;5210107;28;20194;-59
2022/05/18 10:51:45;;;;;;;3.78;2.80;;;27.70;72.20;;;28.50;34.19;98501.28;5205324;28;20250;-59
2022/05/18 10:54:25;;;;;;;3.17;2.78;;;27.70;71.30;;;28.65;33.80;98496.84;5214929;28;20598;-58
2022/05/18 10:57:12;;;;;;;2.97;2.67;;;27.80;71.00;;;28.70;34.16;98501.19;5215155;28;20308;-58
2022/05/18 10:59:51;;;;;;;6.13;3.10;;;27.90;71.20;;;28.81;32.92;98494.97;5211301;28;20622;-57
2022/05/18 11:02:31;;;;;;;2.80;2.60;;;27.90;70.40;;;28.62;32.86;98497.72;5218503;28;20196;-58
2022/05/18 11:05:19;;;;;;;3.35;3.05;;;27.70;70.40;;;28.56;33.80;98486.31;5206575;28;20603;-57
2022/05/18 11:07:54;;;;;;;2.97;2.75;;;27.70;70.70;;;28.67;33.76;98479.25;5207665;28;20291;-57
2022/05/18 11:10:45;;;;;;;3.38;3.08;;;27.80;71.30;;;28.79;34.53;98489.75;5202560;28;20203;-58
2022/05/18 11:13:37;;;;;;;2.70;2.50;;;27.90;72.10;;;28.74;34.46;98487.13;5214670;28;20292;-59